createdAt,value
2023-02-02T00:00:17.854Z,91.93
2023-02-02T00:01:17.870Z,91.93
2023-02-02T00:02:17.817Z,91.93
2023-02-02T00:03:17.813Z,92.14
2023-02-02T00:04:17.830Z,92.14
2023-02-02T00:05:17.820Z,92.03
2023-02-02T00:06:17.806Z,92.03
2023-02-02T00:07:17.791Z,92.03
2023-02-02T00:08:17.779Z,92.14
2023-02-02T00:09:17.760Z,92.14
2023-02-02T00:10:17.787Z,92.24
2023-02-02T00:11:17.703Z,92.24
2023-02-02T00:12:17.726Z,92.14
2023-02-02T00:13:17.707Z,92.14
2023-02-02T00:14:17.707Z,92.24
2023-02-02T00:15:17.651Z,92.14
2023-02-02T00:16:17.703Z,92.14
2023-02-02T00:17:17.700Z,92.24
2023-02-02T00:18:17.644Z,92.24
2023-02-02T00:19:17.627Z,92.24
2023-02-02T00:20:17.614Z,92.24
2023-02-02T00:21:17.605Z,92.14
2023-02-02T00:22:17.605Z,92.14
2023-02-02T00:23:17.544Z,92.14
2023-02-02T00:24:17.551Z,92.14
2023-02-02T00:25:17.537Z,92.14
2023-02-02T00:26:17.579Z,92.03
2023-02-02T00:27:17.523Z,92.03
2023-02-02T00:28:17.499Z,92.14
2023-02-02T00:29:17.492Z,92.14
2023-02-02T00:30:17.447Z,92.14
2023-02-02T00:31:17.482Z,92.14
2023-02-02T00:32:17.465Z,92.14
2023-02-02T00:33:17.445Z,92.24
2023-02-02T00:34:17.406Z,92.29
2023-02-02T00:35:17.390Z,92.24
2023-02-02T00:36:17.438Z,92.29
2023-02-02T00:37:17.409Z,92.24
2023-02-02T00:38:17.376Z,92.24
2023-02-02T00:39:17.397Z,92.24
2023-02-02T00:40:17.336Z,92.14
2023-02-02T00:41:17.336Z,92.14
2023-02-02T00:42:17.297Z,92.14
2023-02-02T00:43:17.298Z,92.24
2023-02-02T00:44:17.274Z,92.24
2023-02-02T00:45:17.267Z,92.24
2023-02-02T00:46:17.267Z,92.24
2023-02-02T00:47:17.258Z,92.14
2023-02-02T00:48:17.232Z,92.14
2023-02-02T00:49:17.206Z,92.03
2023-02-02T00:50:17.178Z,92.03
2023-02-02T00:51:17.229Z,91.93
2023-02-02T00:52:17.193Z,91.93
2023-02-02T00:53:17.153Z,92.03
2023-02-02T00:54:17.132Z,92.03
2023-02-02T00:55:17.168Z,92.03
2023-02-02T00:56:17.152Z,92.03
2023-02-02T00:57:17.135Z,92.14
2023-02-02T00:58:17.098Z,92.14
2023-02-02T00:59:17.088Z,92.14
2023-02-02T01:00:17.091Z,92.14
2023-02-02T01:01:17.089Z,92.24
2023-02-02T01:02:17.066Z,92.24
2023-02-02T01:03:17.059Z,92.24
2023-02-02T01:04:17.006Z,92.34
2023-02-02T01:05:17.021Z,92.44
2023-02-02T01:06:16.964Z,92.44
2023-02-02T01:07:16.991Z,92.44
2023-02-02T01:08:16.990Z,92.55
2023-02-02T01:09:16.968Z,92.44
2023-02-02T01:10:16.960Z,92.44
2023-02-02T01:11:16.920Z,92.44
2023-02-02T01:12:16.890Z,92.44
2023-02-02T01:13:16.901Z,92.44
2023-02-02T01:14:16.867Z,92.55
2023-02-02T01:15:16.891Z,92.65
2023-02-02T01:16:16.872Z,92.65
2023-02-02T01:17:16.832Z,92.65
2023-02-02T01:18:16.820Z,92.76
2023-02-02T01:19:16.852Z,92.65
2023-02-02T01:20:16.805Z,92.65
2023-02-02T01:21:16.781Z,92.55
2023-02-02T01:22:16.806Z,92.44
2023-02-02T01:23:16.790Z,92.44
2023-02-02T01:24:16.739Z,92.44
2023-02-02T01:25:16.760Z,92.34
2023-02-02T01:26:16.746Z,92.44
2023-02-02T01:27:16.716Z,92.55
2023-02-02T01:28:16.755Z,92.65
2023-02-02T01:29:16.704Z,92.86
2023-02-02T01:30:16.688Z,93.06
2023-02-02T01:31:16.686Z,93.27
2023-02-02T01:32:16.619Z,93.58
2023-02-02T01:33:16.650Z,93.88
2023-02-02T01:34:16.601Z,93.99
2023-02-02T01:35:16.597Z,94.30
2023-02-02T01:36:16.656Z,94.60
2023-02-02T01:37:16.593Z,94.92
2023-02-02T01:38:16.594Z,95.37
2023-02-02T01:39:16.573Z,95.68
2023-02-02T01:40:16.520Z,95.99
2023-02-02T01:41:16.542Z,96.30
2023-02-02T01:42:16.540Z,96.61
2023-02-02T01:43:16.564Z,96.92
2023-02-02T01:44:16.501Z,97.23
2023-02-02T01:45:16.460Z,97.53
2023-02-02T01:46:16.520Z,97.85
2023-02-02T01:47:16.446Z,98.20
2023-02-02T01:48:16.464Z,98.41
2023-02-02T01:49:16.440Z,98.61
2023-02-02T01:50:16.433Z,98.82
2023-02-02T01:51:16.392Z,99.02
2023-02-02T01:52:16.386Z,99.13
2023-02-02T01:53:16.396Z,99.13
2023-02-02T01:54:16.403Z,99.23
2023-02-02T01:55:16.358Z,99.23
2023-02-02T01:56:16.316Z,99.13
2023-02-02T01:57:16.304Z,99.13
2023-02-02T01:58:16.330Z,99.13
2023-02-02T01:59:16.295Z,99.13
2023-02-02T02:00:16.278Z,99.02
2023-02-02T02:01:16.340Z,98.92
2023-02-02T02:02:16.278Z,98.92
2023-02-02T02:03:16.244Z,98.92
2023-02-02T02:04:16.200Z,98.92
2023-02-02T02:05:16.234Z,98.92
2023-02-02T02:06:16.239Z,98.82
2023-02-02T02:07:16.196Z,98.82
2023-02-02T02:08:16.195Z,98.82
2023-02-02T02:09:16.176Z,98.61
2023-02-02T02:10:16.126Z,98.41
2023-02-02T02:11:16.159Z,98.41
2023-02-02T02:12:16.128Z,98.41
2023-02-02T02:13:16.126Z,98.30
2023-02-02T02:14:16.090Z,98.20
2023-02-02T02:15:16.131Z,98.20
2023-02-02T02:16:16.116Z,98.30
2023-02-02T02:17:16.076Z,98.20
2023-02-02T02:18:16.077Z,98.20
2023-02-02T02:19:16.029Z,98.20
2023-02-02T02:20:16.036Z,98.10
2023-02-02T02:21:16.038Z,97.99
2023-02-02T02:22:15.992Z,97.89
2023-02-02T02:23:15.975Z,97.89
2023-02-02T02:24:15.988Z,97.78
2023-02-02T02:25:15.965Z,97.89
2023-02-02T02:26:15.937Z,97.89
2023-02-02T02:27:15.942Z,97.89
2023-02-02T02:28:15.913Z,97.78
2023-02-02T02:29:15.910Z,97.68
2023-02-02T02:30:15.875Z,97.68
2023-02-02T02:31:15.987Z,97.78
2023-02-02T02:32:15.850Z,97.78
2023-02-02T02:33:15.874Z,97.78
2023-02-02T02:34:15.805Z,97.78
2023-02-02T02:35:15.829Z,97.68
2023-02-02T02:36:15.791Z,97.48
2023-02-02T02:37:15.811Z,97.38
2023-02-02T02:38:15.755Z,97.17
2023-02-02T02:39:15.782Z,97.13
2023-02-02T02:40:15.808Z,96.92
2023-02-02T02:41:15.762Z,96.81
2023-02-02T02:42:15.715Z,96.81
2023-02-02T02:43:15.721Z,96.81
2023-02-02T02:44:15.704Z,96.71
2023-02-02T02:45:15.705Z,96.71
2023-02-02T02:46:15.753Z,96.81
2023-02-02T02:47:15.687Z,96.81
2023-02-02T02:48:15.626Z,96.81
2023-02-02T02:49:15.660Z,96.81
2023-02-02T02:50:15.626Z,96.81
2023-02-02T02:51:15.592Z,96.71
2023-02-02T02:52:15.580Z,96.81
2023-02-02T02:53:15.609Z,96.61
2023-02-02T02:54:15.540Z,96.61
2023-02-02T02:55:15.546Z,96.41
2023-02-02T02:56:15.545Z,96.41
2023-02-02T02:57:15.542Z,96.41
2023-02-02T02:58:15.519Z,96.09
2023-02-02T02:59:15.495Z,96.09
2023-02-02T03:00:15.488Z,96.09
2023-02-02T03:01:15.571Z,96.20
2023-02-02T03:02:15.567Z,96.30
2023-02-02T03:03:15.476Z,96.41
2023-02-02T03:04:15.436Z,96.50
2023-02-02T03:05:15.427Z,96.81
2023-02-02T03:06:15.386Z,96.92
2023-02-02T03:07:15.429Z,97.02
2023-02-02T03:08:15.409Z,97.13
2023-02-02T03:09:15.397Z,97.23
2023-02-02T03:10:15.361Z,97.23
2023-02-02T03:11:15.367Z,97.33
2023-02-02T03:12:15.336Z,97.43
2023-02-02T03:13:15.355Z,97.43
2023-02-02T03:14:15.329Z,97.64
2023-02-02T03:15:15.314Z,97.64
2023-02-02T03:16:15.284Z,97.74
2023-02-02T03:17:15.245Z,97.74
2023-02-02T03:18:15.270Z,97.74
2023-02-02T03:19:15.216Z,97.85
2023-02-02T03:20:15.207Z,97.85
2023-02-02T03:21:15.202Z,97.85
2023-02-02T03:22:15.194Z,97.85
2023-02-02T03:23:15.217Z,97.74
2023-02-02T03:24:15.165Z,97.74
2023-02-02T03:25:15.183Z,97.74
2023-02-02T03:26:15.138Z,97.85
2023-02-02T03:27:15.176Z,97.85
2023-02-02T03:28:15.132Z,97.85
2023-02-02T03:29:15.161Z,97.95
2023-02-02T03:30:15.114Z,97.85
2023-02-02T03:31:15.188Z,97.95
2023-02-02T03:32:15.083Z,97.95
2023-02-02T03:33:15.095Z,98.05
2023-02-02T03:34:15.015Z,98.20
2023-02-02T03:35:15.015Z,98.25
2023-02-02T03:36:15.026Z,98.41
2023-02-02T03:37:14.983Z,98.50
2023-02-02T03:38:15.010Z,98.61
2023-02-02T03:39:14.972Z,98.71
2023-02-02T03:40:14.961Z,98.71
2023-02-02T03:41:14.952Z,98.82
2023-02-02T03:42:14.940Z,98.82
2023-02-02T03:43:14.932Z,98.82
2023-02-02T03:44:14.902Z,98.92
2023-02-02T03:45:14.872Z,99.02
2023-02-02T03:46:14.957Z,99.13
2023-02-02T03:47:14.853Z,99.13
2023-02-02T03:48:14.856Z,99.23
2023-02-02T03:49:14.850Z,99.23
2023-02-02T03:50:14.851Z,99.23
2023-02-02T03:51:14.820Z,99.33
2023-02-02T03:52:14.791Z,99.33
2023-02-02T03:53:14.788Z,99.43
2023-02-02T03:54:14.789Z,99.43
2023-02-02T03:55:14.742Z,99.54
2023-02-02T03:56:14.741Z,99.54
2023-02-02T03:57:14.746Z,99.64
2023-02-02T03:58:14.710Z,99.74
2023-02-02T03:59:14.758Z,99.85
2023-02-02T04:00:14.726Z,99.85
2023-02-02T04:01:14.667Z,99.95
2023-02-02T04:02:14.674Z,99.99
2023-02-02T04:03:14.671Z,99.99
2023-02-02T04:04:14.634Z,99.99
2023-02-02T04:05:14.620Z,99.99
2023-02-02T04:06:14.616Z,99.99
2023-02-02T04:07:14.622Z,99.99
2023-02-02T04:08:14.590Z,99.99
2023-02-02T04:09:14.555Z,99.99
2023-02-02T04:10:14.603Z,99.99
2023-02-02T04:11:14.546Z,99.99
2023-02-02T04:12:14.565Z,99.99
2023-02-02T04:13:14.558Z,99.99
2023-02-02T04:14:14.530Z,99.99
2023-02-02T04:15:14.487Z,99.99
2023-02-02T04:16:14.598Z,99.99
2023-02-02T04:17:14.508Z,99.99
2023-02-02T04:18:14.476Z,99.99
2023-02-02T04:19:14.444Z,99.99
2023-02-02T04:20:14.450Z,99.99
2023-02-02T04:21:14.442Z,99.99
2023-02-02T04:22:14.431Z,99.99
2023-02-02T04:23:14.385Z,99.99
2023-02-02T04:24:14.375Z,99.99
2023-02-02T04:25:14.371Z,99.99
2023-02-02T04:26:14.355Z,99.99
2023-02-02T04:27:14.349Z,99.99
2023-02-02T04:28:14.328Z,99.99
2023-02-02T04:29:14.330Z,99.99
2023-02-02T04:30:14.305Z,99.99
2023-02-02T04:31:14.463Z,99.99
2023-02-02T04:32:14.335Z,99.99
2023-02-02T04:33:14.260Z,99.99
2023-02-02T04:34:14.241Z,99.99
2023-02-02T04:35:14.258Z,99.99
2023-02-02T04:36:14.240Z,99.99
2023-02-02T04:37:14.284Z,99.99
2023-02-02T04:38:14.217Z,99.99
2023-02-02T04:39:14.152Z,99.99
2023-02-02T04:40:14.236Z,99.99
2023-02-02T04:41:14.143Z,99.99
2023-02-02T04:42:14.170Z,99.99
2023-02-02T04:43:14.134Z,99.99
2023-02-02T04:44:14.137Z,99.99
2023-02-02T04:45:14.113Z,99.99
2023-02-02T04:46:14.157Z,99.99
2023-02-02T04:47:14.108Z,99.99
2023-02-02T04:48:14.088Z,99.99
2023-02-02T04:49:14.057Z,99.99
2023-02-02T04:50:14.061Z,99.99
2023-02-02T04:51:14.028Z,99.99
2023-02-02T04:52:14.054Z,99.99
2023-02-02T04:53:13.988Z,99.99
2023-02-02T04:54:14.006Z,99.99
2023-02-02T04:55:13.983Z,99.99
2023-02-02T04:56:13.962Z,99.99
2023-02-02T04:57:21.499Z,99.99
2023-02-02T04:58:13.947Z,99.99
2023-02-02T04:59:15.711Z,99.99
2023-02-02T05:00:13.910Z,99.99
2023-02-02T05:01:14.005Z,99.99
2023-02-02T05:02:13.873Z,99.99
2023-02-02T05:03:13.869Z,99.99
2023-02-02T05:04:13.891Z,99.99
2023-02-02T05:05:13.846Z,99.99
2023-02-02T05:06:15.856Z,99.99
2023-02-02T05:07:13.869Z,99.99
2023-02-02T05:08:13.819Z,99.99
2023-02-02T05:09:13.812Z,99.99
2023-02-02T05:10:13.786Z,99.99
2023-02-02T05:11:13.759Z,99.99
2023-02-02T05:12:13.740Z,99.99
2023-02-02T05:13:13.718Z,99.99
2023-02-02T05:14:13.761Z,99.99
2023-02-02T05:15:13.708Z,99.99
2023-02-02T05:16:13.724Z,99.99
2023-02-02T05:17:13.661Z,99.99
2023-02-02T05:18:13.688Z,99.99
2023-02-02T05:19:14.362Z,99.99
2023-02-02T05:20:13.662Z,99.99
2023-02-02T05:21:13.609Z,99.99
2023-02-02T05:22:13.610Z,99.99
2023-02-02T05:23:13.605Z,99.99
2023-02-02T05:24:13.598Z,99.99
2023-02-02T05:25:13.600Z,99.99
2023-02-02T05:26:13.584Z,99.99
2023-02-02T05:27:13.529Z,99.99
2023-02-02T05:28:13.545Z,99.99
2023-02-02T05:29:13.533Z,99.99
2023-02-02T05:30:13.554Z,99.99
2023-02-02T05:31:13.520Z,99.99
2023-02-02T05:32:13.489Z,99.99
2023-02-02T05:33:13.454Z,99.99
2023-02-02T05:34:13.501Z,99.99
2023-02-02T05:35:13.442Z,99.99
2023-02-02T05:36:13.456Z,99.99
2023-02-02T05:37:13.424Z,99.99
2023-02-02T05:38:13.431Z,99.99
2023-02-02T05:39:13.365Z,99.99
2023-02-02T05:40:13.402Z,99.99
2023-02-02T05:41:13.365Z,99.99
2023-02-02T05:42:13.345Z,99.99
2023-02-02T05:43:13.323Z,99.99
2023-02-02T05:44:13.344Z,99.99
2023-02-02T05:45:13.293Z,99.99
2023-02-02T05:46:13.385Z,99.99
2023-02-02T05:47:13.275Z,99.99
2023-02-02T05:48:13.297Z,99.99
2023-02-02T05:49:13.281Z,99.99
2023-02-02T05:50:13.268Z,99.99
2023-02-02T05:51:13.249Z,99.99
2023-02-02T05:52:13.257Z,99.99
2023-02-02T05:53:13.187Z,99.99
2023-02-02T05:54:13.223Z,99.99
2023-02-02T05:55:13.181Z,99.99
2023-02-02T05:56:13.179Z,99.99
2023-02-02T05:57:13.138Z,99.99
2023-02-02T05:58:13.130Z,99.99
2023-02-02T05:59:13.111Z,99.99
2023-02-02T06:00:13.126Z,99.99
2023-02-02T06:01:13.105Z,99.99
2023-02-02T06:02:13.104Z,99.99
2023-02-02T06:03:13.417Z,99.99
2023-02-02T06:04:13.106Z,99.99
2023-02-02T06:05:13.043Z,99.99
2023-02-02T06:06:13.043Z,99.99
2023-02-02T06:07:13.050Z,99.99
2023-02-02T06:08:13.027Z,99.99
2023-02-02T06:09:12.981Z,99.99
2023-02-02T06:10:12.978Z,99.99
2023-02-02T06:11:12.996Z,99.99
2023-02-02T06:12:12.974Z,99.99
2023-02-02T06:13:12.969Z,99.99
2023-02-02T06:14:12.957Z,99.99
2023-02-02T06:15:12.926Z,99.99
2023-02-02T06:16:12.931Z,99.99
2023-02-02T06:17:12.920Z,99.99
2023-02-02T06:18:12.923Z,99.99
2023-02-02T06:19:12.871Z,99.99
2023-02-02T06:20:12.850Z,99.99
2023-02-02T06:21:12.829Z,99.99
2023-02-02T06:22:12.867Z,99.99
2023-02-02T06:23:12.834Z,99.99
2023-02-02T06:24:12.833Z,99.99
2023-02-02T06:25:12.777Z,99.99
2023-02-02T06:26:12.796Z,99.99
2023-02-02T06:27:12.768Z,99.99
2023-02-02T06:28:12.758Z,99.99
2023-02-02T06:29:12.735Z,99.99
2023-02-02T06:30:12.747Z,99.99
2023-02-02T06:31:12.832Z,99.99
2023-02-02T06:32:12.695Z,99.99
2023-02-02T06:33:12.681Z,99.99
2023-02-02T06:34:12.657Z,99.99
2023-02-02T06:35:12.640Z,99.99
2023-02-02T06:36:12.646Z,99.99
2023-02-02T06:37:12.642Z,99.99
2023-02-02T06:38:12.639Z,99.99
2023-02-02T06:39:12.630Z,99.99
2023-02-02T06:40:12.595Z,99.99
2023-02-02T06:41:12.621Z,99.99
2023-02-02T06:42:21.392Z,99.99
2023-02-02T06:43:13.535Z,99.99
2023-02-02T06:44:12.571Z,99.99
2023-02-02T06:45:12.547Z,99.85
2023-02-02T06:46:12.556Z,99.74
2023-02-02T06:47:12.502Z,99.74
2023-02-02T06:48:12.486Z,99.74
2023-02-02T06:49:12.452Z,99.74
2023-02-02T06:50:12.500Z,99.74
2023-02-02T06:51:12.425Z,99.74
2023-02-02T06:52:12.449Z,99.74
2023-02-02T06:53:12.431Z,99.85
2023-02-02T06:54:12.416Z,99.85
2023-02-02T06:55:12.397Z,99.95
2023-02-02T06:56:12.435Z,99.95
2023-02-02T06:57:12.375Z,99.99
2023-02-02T06:58:12.396Z,99.99
2023-02-02T06:59:12.345Z,99.99
2023-02-02T07:00:12.331Z,99.99
2023-02-02T07:01:12.371Z,99.99
2023-02-02T07:02:12.337Z,99.99
2023-02-02T07:03:12.272Z,99.99
2023-02-02T07:04:12.297Z,99.99
2023-02-02T07:05:12.289Z,99.99
2023-02-02T07:06:12.283Z,99.99
2023-02-02T07:07:12.252Z,99.99
2023-02-02T07:08:12.210Z,99.99
2023-02-02T07:09:12.218Z,99.99
2023-02-02T07:11:13.509Z,99.99
2023-02-02T07:11:16.648Z,99.99
2023-02-02T07:12:12.198Z,99.99
2023-02-02T07:13:12.139Z,99.99
2023-02-02T07:14:12.158Z,99.99
2023-02-02T07:15:12.133Z,99.99
2023-02-02T07:16:12.183Z,99.99
2023-02-02T07:17:12.098Z,99.99
2023-02-02T07:18:12.108Z,99.99
2023-02-02T07:19:12.087Z,99.99
2023-02-02T07:20:12.084Z,99.99
2023-02-02T07:21:12.056Z,99.99
2023-02-02T07:22:12.054Z,99.99
2023-02-02T07:23:12.011Z,99.99
2023-02-02T07:24:12.095Z,99.99
2023-02-02T07:25:11.986Z,99.99
2023-02-02T07:26:11.978Z,99.99
2023-02-02T07:27:11.994Z,99.99
2023-02-02T07:28:12.002Z,99.99
2023-02-02T07:29:11.966Z,99.99
2023-02-02T07:30:11.950Z,99.99
2023-02-02T07:31:12.128Z,99.99
2023-02-02T07:32:11.936Z,99.99
2023-02-02T07:33:11.932Z,99.99
2023-02-02T07:34:11.957Z,99.99
2023-02-02T07:35:11.901Z,99.99
2023-02-02T07:36:11.871Z,99.99
2023-02-02T07:37:11.851Z,99.99
2023-02-02T07:38:11.825Z,99.99
2023-02-02T07:39:11.824Z,99.99
2023-02-02T07:40:11.847Z,99.99
2023-02-02T07:41:11.790Z,99.99
2023-02-02T07:42:11.823Z,99.99
2023-02-02T07:43:11.733Z,99.99
2023-02-02T07:44:11.793Z,99.99
2023-02-02T07:45:27.095Z,99.99
2023-02-02T07:46:12.980Z,99.99
2023-02-02T07:47:11.742Z,99.99
2023-02-02T07:48:11.688Z,99.99
2023-02-02T07:49:11.691Z,99.99
2023-02-02T07:50:11.674Z,99.99
2023-02-02T07:51:11.643Z,99.99
2023-02-02T07:52:12.361Z,99.99
2023-02-02T07:53:11.610Z,99.99
2023-02-02T07:54:11.612Z,99.99
2023-02-02T07:55:14.746Z,99.99
2023-02-02T07:56:11.590Z,99.99
2023-02-02T07:57:11.608Z,99.99
2023-02-02T07:58:11.578Z,99.99
2023-02-02T07:59:11.571Z,99.99
2023-02-02T08:00:11.535Z,99.99
2023-02-02T08:01:11.666Z,99.99
2023-02-02T08:02:11.627Z,99.99
2023-02-02T08:03:11.637Z,99.99
2023-02-02T08:04:11.503Z,99.99
2023-02-02T08:05:11.465Z,99.99
2023-02-02T08:06:11.465Z,99.99
2023-02-02T08:07:11.468Z,99.99
2023-02-02T08:08:11.448Z,99.99
2023-02-02T08:09:11.437Z,99.99
2023-02-02T08:10:11.419Z,99.99
2023-02-02T08:11:11.398Z,99.99
2023-02-02T08:12:11.377Z,99.99
2023-02-02T08:13:11.393Z,99.99
2023-02-02T08:14:11.336Z,99.99
2023-02-02T08:15:11.864Z,99.99
2023-02-02T08:16:11.378Z,99.99
2023-02-02T08:17:11.319Z,99.99
2023-02-02T08:18:11.320Z,99.99
2023-02-02T08:19:11.312Z,99.99
2023-02-02T08:20:11.268Z,99.99
2023-02-02T08:21:11.289Z,99.99
2023-02-02T08:22:11.288Z,99.99
2023-02-02T08:23:11.225Z,99.99
2023-02-02T08:24:11.249Z,99.99
2023-02-02T08:25:11.235Z,99.99
2023-02-02T08:26:11.205Z,99.99
2023-02-02T08:27:11.174Z,99.99
2023-02-02T08:28:11.160Z,99.99
2023-02-02T08:29:11.195Z,99.99
2023-02-02T08:30:11.124Z,99.99
2023-02-02T08:31:11.214Z,99.99
2023-02-02T08:32:11.094Z,99.99
2023-02-02T08:33:11.139Z,99.99
2023-02-02T08:34:11.105Z,99.99
2023-02-02T08:35:11.075Z,99.99
2023-02-02T08:36:11.046Z,99.99
2023-02-02T08:37:11.071Z,99.99
2023-02-02T08:38:11.021Z,99.99
2023-02-02T08:39:11.061Z,99.99
2023-02-02T08:40:11.049Z,99.99
2023-02-02T08:41:11.024Z,99.99
2023-02-02T08:42:10.992Z,99.99
2023-02-02T08:43:10.961Z,99.99
2023-02-02T08:44:11.668Z,99.99
2023-02-02T08:46:04.360Z,99.99
2023-02-02T08:46:11.983Z,99.99
2023-02-02T08:47:10.963Z,99.99
2023-02-02T08:48:12.583Z,99.99
2023-02-02T08:49:10.918Z,99.99
2023-02-02T08:50:10.889Z,99.99
2023-02-02T08:51:10.909Z,99.99
2023-02-02T08:52:10.831Z,99.99
2023-02-02T08:53:10.868Z,99.99
2023-02-02T08:54:10.839Z,99.99
2023-02-02T08:55:10.824Z,99.99
2023-02-02T08:56:10.829Z,99.99
2023-02-02T08:57:10.793Z,99.99
2023-02-02T08:58:10.789Z,99.99
2023-02-02T08:59:10.791Z,99.99
2023-02-02T09:00:10.768Z,99.99
2023-02-02T09:01:10.800Z,99.99
2023-02-02T09:02:10.781Z,99.99
2023-02-02T09:03:10.699Z,99.99
2023-02-02T09:04:10.724Z,99.99
2023-02-02T09:05:10.718Z,99.99
2023-02-02T09:06:10.681Z,99.99
2023-02-02T09:07:10.696Z,99.99
2023-02-02T09:08:10.631Z,99.99
2023-02-02T09:09:10.647Z,99.99
2023-02-02T09:10:10.660Z,99.99
2023-02-02T09:11:10.619Z,99.99
2023-02-02T09:12:10.632Z,99.99
2023-02-02T09:13:10.613Z,99.99
2023-02-02T09:14:10.573Z,99.99
2023-02-02T09:15:10.558Z,99.99
2023-02-02T09:16:10.593Z,99.99
2023-02-02T09:17:10.529Z,99.99
2023-02-02T09:18:10.534Z,99.99
2023-02-02T09:19:10.518Z,99.99
2023-02-02T09:20:10.472Z,99.99
2023-02-02T09:21:10.514Z,99.99
2023-02-02T09:22:10.445Z,99.99
2023-02-02T09:23:10.463Z,99.99
2023-02-02T09:24:10.463Z,99.99
2023-02-02T09:25:10.429Z,99.99
2023-02-02T09:26:10.395Z,99.99
2023-02-02T09:27:10.404Z,99.99
2023-02-02T09:28:10.365Z,99.99
2023-02-02T09:29:10.403Z,99.99
2023-02-02T09:30:10.364Z,99.99
2023-02-02T09:31:10.388Z,99.99
2023-02-02T09:32:10.468Z,99.99
2023-02-02T09:33:10.396Z,99.99
2023-02-02T09:34:10.305Z,99.99
2023-02-02T09:35:10.328Z,99.99
2023-02-02T09:36:10.252Z,99.99
2023-02-02T09:37:10.278Z,99.99
2023-02-02T09:38:10.259Z,99.99
2023-02-02T09:39:10.232Z,99.99
2023-02-02T09:40:10.241Z,99.99
2023-02-02T09:41:10.226Z,99.99
2023-02-02T09:42:10.178Z,99.99
2023-02-02T09:43:10.211Z,99.99
2023-02-02T09:44:10.179Z,99.99
2023-02-02T09:45:10.159Z,99.99
2023-02-02T09:46:10.233Z,99.99
2023-02-02T09:47:10.204Z,99.99
2023-02-02T09:48:10.099Z,99.99
2023-02-02T09:49:10.089Z,99.99
2023-02-02T09:50:10.117Z,99.99
2023-02-02T09:51:10.129Z,99.99
2023-02-02T09:52:10.038Z,99.99
2023-02-02T09:53:10.077Z,99.99
2023-02-02T09:54:10.123Z,99.99
2023-02-02T09:55:10.019Z,99.99
2023-02-02T09:56:10.053Z,99.99
2023-02-02T09:57:09.991Z,99.99
2023-02-02T09:58:09.991Z,99.99
2023-02-02T09:59:19.276Z,99.99
2023-02-02T10:00:10.978Z,99.99
2023-02-02T10:01:09.975Z,99.99
2023-02-02T10:02:09.931Z,99.99
2023-02-02T10:03:09.973Z,99.99
2023-02-02T10:04:09.930Z,99.99
2023-02-02T10:05:09.888Z,99.99
2023-02-02T10:06:09.876Z,99.99
2023-02-02T10:07:09.908Z,99.99
2023-02-02T10:08:09.834Z,99.99
2023-02-02T10:09:09.841Z,99.99
2023-02-02T10:10:09.805Z,99.99
2023-02-02T10:11:09.846Z,99.99
2023-02-02T10:12:09.793Z,99.99
2023-02-02T10:13:09.849Z,99.99
2023-02-02T10:14:09.781Z,99.99
2023-02-02T10:15:09.754Z,99.99
2023-02-02T10:16:09.785Z,99.99
2023-02-02T10:17:09.734Z,99.99
2023-02-02T10:18:09.710Z,99.99
2023-02-02T10:19:09.785Z,99.99
2023-02-02T10:20:09.701Z,99.99
2023-02-02T10:21:09.673Z,99.99
2023-02-02T10:22:09.654Z,99.99
2023-02-02T10:23:09.679Z,99.99
2023-02-02T10:24:09.621Z,99.99
2023-02-02T10:25:09.646Z,99.99
2023-02-02T10:26:09.601Z,99.99
2023-02-02T10:27:09.619Z,99.99
2023-02-02T10:28:09.581Z,99.99
2023-02-02T10:29:09.574Z,99.99
2023-02-02T10:30:09.560Z,99.99
2023-02-02T10:31:09.633Z,99.99
2023-02-02T10:32:09.637Z,99.99
2023-02-02T10:33:09.537Z,99.99
2023-02-02T10:34:09.512Z,99.99
2023-02-02T10:35:13.886Z,99.99
2023-02-02T10:36:09.495Z,99.99
2023-02-02T10:37:09.488Z,99.99
2023-02-02T10:38:09.440Z,99.99
2023-02-02T10:39:09.465Z,99.99
2023-02-02T10:40:09.600Z,99.99
2023-02-02T10:41:09.436Z,99.99
2023-02-02T10:42:09.393Z,99.99
2023-02-02T10:43:09.415Z,99.99
2023-02-02T10:44:09.357Z,99.99
2023-02-02T10:45:09.371Z,99.99
2023-02-02T10:46:09.387Z,99.99
2023-02-02T10:47:09.366Z,99.99
2023-02-02T10:48:09.362Z,99.99
2023-02-02T10:49:09.307Z,99.99
2023-02-02T10:50:09.279Z,99.99
2023-02-02T10:51:09.303Z,99.99
2023-02-02T10:52:09.309Z,99.99
2023-02-02T10:53:09.278Z,99.99
2023-02-02T10:54:09.227Z,99.99
2023-02-02T10:55:09.278Z,99.96
2023-02-02T10:56:09.251Z,99.96
2023-02-02T10:57:09.984Z,99.86
2023-02-02T10:58:09.249Z,99.86
2023-02-02T10:59:09.175Z,99.86
2023-02-02T11:00:09.171Z,99.86
2023-02-02T11:01:09.177Z,99.71
2023-02-02T11:02:20.393Z,99.71
2023-02-02T11:03:10.178Z,99.51
2023-02-02T11:04:09.105Z,99.40
2023-02-02T11:05:09.129Z,99.30
2023-02-02T11:06:09.107Z,99.09
2023-02-02T11:07:09.065Z,98.88
2023-02-02T11:08:09.060Z,98.99
2023-02-02T11:09:09.043Z,98.88
2023-02-02T11:10:09.041Z,98.68
2023-02-02T11:11:09.081Z,98.58
2023-02-02T11:12:09.019Z,98.47
2023-02-02T11:13:09.040Z,98.37
2023-02-02T11:14:08.968Z,98.37
2023-02-02T11:15:09.011Z,98.37
2023-02-02T11:16:08.993Z,98.47
2023-02-02T11:17:08.986Z,98.47
2023-02-02T11:18:08.931Z,98.58
2023-02-02T11:19:08.913Z,98.58
2023-02-02T11:20:08.942Z,98.58
2023-02-02T11:21:08.928Z,98.47
2023-02-02T11:22:08.905Z,98.47
2023-02-02T11:23:08.870Z,98.47
2023-02-02T11:24:08.866Z,98.58
2023-02-02T11:25:08.861Z,98.47
2023-02-02T11:26:08.848Z,98.47
2023-02-02T11:27:08.828Z,98.16
2023-02-02T11:28:08.819Z,98.06
2023-02-02T11:29:08.804Z,97.86
2023-02-02T11:30:08.755Z,97.86
2023-02-02T11:31:08.839Z,97.86
2023-02-02T11:32:08.740Z,97.75
2023-02-02T11:33:08.724Z,97.55
2023-02-02T11:34:08.737Z,97.40
2023-02-02T11:35:08.732Z,97.40
2023-02-02T11:36:08.748Z,97.19
2023-02-02T11:37:08.706Z,97.30
2023-02-02T11:38:08.686Z,97.19
2023-02-02T11:39:08.649Z,97.30
2023-02-02T11:40:08.676Z,96.99
2023-02-02T11:41:08.637Z,96.99
2023-02-02T11:42:08.591Z,96.99
2023-02-02T11:43:08.635Z,97.09
2023-02-02T11:44:08.611Z,97.09
2023-02-02T11:45:08.593Z,96.68
2023-02-02T11:46:08.646Z,96.58
2023-02-02T11:47:08.570Z,96.58
2023-02-02T11:48:08.551Z,96.47
2023-02-02T11:49:08.609Z,96.37
2023-02-02T11:50:08.533Z,96.47
2023-02-02T11:51:08.548Z,96.37
2023-02-02T11:52:08.504Z,96.37
2023-02-02T11:53:08.475Z,96.27
2023-02-02T11:54:08.443Z,96.12
2023-02-02T11:55:08.487Z,96.12
2023-02-02T11:56:08.444Z,96.22
2023-02-02T11:57:08.435Z,96.02
2023-02-02T11:58:09.968Z,96.02
2023-02-02T11:59:08.397Z,95.92
2023-02-02T12:00:08.383Z,95.81
2023-02-02T12:01:08.392Z,95.92
2023-02-02T12:02:08.422Z,95.81
2023-02-02T12:03:08.354Z,95.61
2023-02-02T12:04:08.595Z,95.40
2023-02-02T12:05:08.305Z,95.50
2023-02-02T12:06:08.309Z,95.61
2023-02-02T12:07:08.330Z,95.50
2023-02-02T12:08:08.294Z,95.30
2023-02-02T12:09:08.263Z,95.09
2023-02-02T12:10:08.233Z,95.30
2023-02-02T12:11:08.232Z,95.50
2023-02-02T12:12:08.244Z,95.20
2023-02-02T12:13:08.240Z,94.99
2023-02-02T12:14:08.195Z,94.78
2023-02-02T12:15:08.193Z,94.89
2023-02-02T12:16:09.154Z,94.99
2023-02-02T12:17:08.219Z,95.20
2023-02-02T12:18:08.155Z,95.20
2023-02-02T12:19:08.111Z,95.20
2023-02-02T12:20:08.149Z,95.30
2023-02-02T12:21:08.099Z,95.50
2023-02-02T12:22:10.547Z,95.50
2023-02-02T12:23:08.071Z,95.50
2023-02-02T12:24:08.088Z,95.61
2023-02-02T12:25:08.077Z,95.71
2023-02-02T12:26:08.066Z,95.61
2023-02-02T12:27:08.031Z,95.81
2023-02-02T12:28:09.474Z,96.02
2023-02-02T12:29:08.013Z,96.12
2023-02-02T12:30:07.999Z,95.81
2023-02-02T12:31:08.066Z,95.81
2023-02-02T12:32:07.960Z,95.81
2023-02-02T12:33:07.986Z,95.61
2023-02-02T12:34:10.077Z,95.30
2023-02-02T12:35:07.910Z,95.40
2023-02-02T12:36:07.910Z,95.40
2023-02-02T12:37:07.906Z,95.40
2023-02-02T12:38:08.001Z,95.40
2023-02-02T12:39:07.888Z,95.40
2023-02-02T12:40:09.731Z,95.40
2023-02-02T12:41:07.832Z,95.50
2023-02-02T12:42:07.832Z,94.78
2023-02-02T12:43:07.879Z,94.68
2023-02-02T12:44:07.825Z,94.68
2023-02-02T12:45:07.835Z,94.78
2023-02-02T12:46:09.455Z,94.78
2023-02-02T12:47:07.775Z,94.84
2023-02-02T12:48:07.817Z,94.64
2023-02-02T12:49:07.813Z,94.54
2023-02-02T12:50:07.754Z,94.54
2023-02-02T12:51:07.735Z,94.23
2023-02-02T12:52:09.017Z,94.23